CheckWX is a tool to help pilots better visualize weather data.  It is not intended as a substitute for an official pre-flight weather briefing.

01:22:35 UTC

DIYO TAF
Yamoussoukro Airport
Yamoussoukro, Côte D’Ivoire
TAF DIYO 232300Z 2400/2424 24005KT 8000 FEW013 TEMPO 2405/2409 3000 BR

Feb-24@
00:00 UTC

Feb-24 @ 00:00 UTC

Feb-25@
00:00 UTC

Feb-25 @ 00:00 UTC

TAF DIYO 232300Z 2400/2424 24005KT 8000 FEW013
Wind
  • 240° at 5 KTS
Cloud Levels
  • Few at 1,300' AGL

Feb-24@
05:00 UTC

Feb-24 @ 05:00 UTC

Feb-24@
09:00 UTC

Feb-24 @ 09:00 UTC

TEMPO 2405/2409 3000 BR

Temporary

Temporary Changes expected for less than half the time period

Conditions
Mist